createdAt,value
2023-08-13T00:02:44.631Z,82.89
2023-08-13T00:05:49.472Z,82.84
2023-08-13T00:08:51.417Z,83.38
2023-08-13T00:11:54.544Z,83.48
2023-08-13T00:14:56.511Z,83.84
2023-08-13T00:17:58.590Z,84.12
2023-08-13T00:21:01.194Z,84.14
2023-08-13T00:24:03.011Z,84.21
2023-08-13T00:27:05.262Z,84.14
2023-08-13T00:30:07.918Z,84.14
2023-08-13T00:33:09.738Z,84.58
2023-08-13T00:36:12.712Z,84.80
2023-08-13T00:39:20.495Z,84.16
2023-08-13T00:42:22.432Z,84.12
2023-08-13T00:45:24.958Z,84.13
2023-08-13T00:48:27.239Z,84.29
2023-08-13T00:51:30.367Z,84.18
2023-08-13T00:54:32.409Z,84.44
2023-08-13T00:57:34.703Z,84.52
2023-08-13T01:00:36.678Z,84.31
2023-08-13T01:03:39.258Z,84.47
2023-08-13T01:06:57.388Z,85.28
2023-08-13T01:10:27.236Z,84.63
2023-08-13T01:13:38.550Z,84.62
2023-08-13T01:16:44.038Z,84.66
2023-08-13T01:19:46.019Z,85.01
2023-08-13T01:22:50.808Z,84.70
2023-08-13T01:25:59.252Z,84.78
2023-08-13T01:29:10.333Z,84.13
2023-08-13T01:32:15.822Z,84.40
2023-08-13T01:35:23.150Z,84.31
2023-08-13T01:38:26.856Z,84.59
2023-08-13T01:41:48.835Z,84.61
2023-08-13T01:44:50.786Z,84.95
2023-08-13T01:47:52.908Z,84.89
2023-08-13T01:50:55.165Z,85.22
2023-08-13T01:53:57.117Z,85.52
2023-08-13T01:56:59.001Z,85.55
2023-08-13T02:00:00.935Z,85.76
2023-08-13T02:03:03.132Z,86.10
2023-08-13T02:06:05.090Z,86.16
2023-08-13T02:09:07.021Z,86.46
2023-08-13T02:12:09.156Z,86.02
2023-08-13T02:15:11.240Z,86.26
2023-08-13T02:18:18.867Z,86.17
2023-08-13T02:21:21.148Z,86.63
2023-08-13T02:24:23.137Z,86.46
2023-08-13T02:27:25.070Z,86.55
2023-08-13T02:30:26.979Z,86.40
2023-08-13T02:33:28.965Z,87.05
2023-08-13T02:36:30.972Z,86.98
2023-08-13T02:39:32.891Z,87.27
2023-08-13T02:42:34.941Z,86.91
2023-08-13T02:45:36.828Z,86.83
2023-08-13T02:48:38.831Z,86.76
2023-08-13T02:51:40.732Z,86.82
2023-08-13T02:54:42.603Z,86.70
2023-08-13T02:57:56.474Z,86.82
2023-08-13T03:01:07.000Z,86.81
2023-08-13T03:04:08.879Z,87.34
2023-08-13T03:07:10.853Z,86.90
2023-08-13T03:10:13.453Z,87.14
2023-08-13T03:13:15.247Z,87.28
2023-08-13T03:16:17.474Z,87.15
2023-08-13T03:19:20.467Z,87.22
2023-08-13T03:22:22.556Z,87.16
2023-08-13T03:25:24.610Z,87.01
2023-08-13T03:28:26.574Z,86.89
2023-08-13T03:31:29.738Z,87.18
2023-08-13T03:34:37.478Z,87.24
2023-08-13T03:37:39.442Z,87.31
2023-08-13T03:40:41.352Z,87.12
2023-08-13T03:43:43.359Z,87.30
2023-08-13T03:46:45.366Z,87.27
2023-08-13T03:49:47.371Z,87.10
2023-08-13T03:52:49.319Z,87.43
2023-08-13T03:55:52.852Z,87.05
2023-08-13T03:58:54.960Z,86.90
2023-08-13T04:01:59.035Z,87.14
2023-08-13T04:05:01.252Z,86.03
2023-08-13T04:08:03.889Z,85.54
2023-08-13T04:11:06.268Z,84.38
2023-08-13T04:14:08.801Z,83.00
2023-08-13T04:17:10.792Z,82.73
2023-08-13T04:20:13.755Z,82.05
2023-08-13T04:23:15.637Z,81.20
2023-08-13T04:26:17.892Z,80.09
2023-08-13T04:29:19.893Z,78.51
2023-08-13T04:32:22.068Z,77.82
2023-08-13T04:35:24.367Z,77.50
2023-08-13T04:38:26.361Z,76.94
2023-08-13T04:41:31.064Z,76.15
2023-08-13T04:44:33.072Z,75.46
2023-08-13T04:47:37.953Z,74.76
2023-08-13T04:50:40.364Z,73.71
2023-08-13T04:53:43.525Z,72.77
2023-08-13T04:56:46.154Z,71.89
2023-08-13T04:59:48.123Z,71.63
2023-08-13T05:02:50.386Z,71.67
2023-08-13T05:05:53.038Z,71.54
2023-08-13T05:08:54.984Z,71.05
2023-08-13T05:11:57.187Z,69.04
2023-08-13T05:14:59.206Z,69.44
2023-08-13T05:18:01.529Z,69.13
2023-08-13T05:21:03.536Z,68.03
2023-08-13T05:24:06.297Z,67.96
2023-08-13T05:27:08.249Z,67.60
2023-08-13T05:30:11.308Z,67.33
2023-08-13T05:33:13.459Z,65.99
2023-08-13T05:36:15.887Z,65.33
2023-08-13T05:39:17.946Z,65.38
2023-08-13T05:42:21.037Z,64.85
2023-08-13T05:45:23.067Z,63.91
2023-08-13T05:48:24.935Z,62.53
2023-08-13T05:51:26.904Z,62.72
2023-08-13T05:54:28.773Z,62.16
2023-08-13T05:57:30.748Z,62.27
2023-08-13T06:00:32.964Z,60.31
2023-08-13T06:03:34.725Z,59.93
2023-08-13T06:06:36.692Z,60.28
2023-08-13T06:09:38.580Z,58.58
2023-08-13T06:12:40.515Z,58.81
2023-08-13T06:15:42.484Z,57.70
2023-08-13T06:18:44.343Z,56.60
2023-08-13T06:21:46.291Z,57.09
2023-08-13T06:24:48.685Z,56.73
2023-08-13T06:27:50.765Z,56.95
2023-08-13T06:30:52.653Z,56.00
2023-08-13T06:33:54.588Z,55.10
2023-08-13T06:36:56.466Z,55.83
2023-08-13T06:39:58.404Z,55.10
2023-08-13T06:43:00.258Z,54.35
2023-08-13T06:46:03.088Z,55.36
2023-08-13T06:49:05.006Z,53.34
2023-08-13T06:52:07.472Z,53.66
2023-08-13T06:55:09.642Z,52.29
2023-08-13T06:58:11.516Z,52.21
2023-08-13T07:01:13.443Z,51.68
2023-08-13T07:04:15.225Z,51.86
2023-08-13T07:07:17.177Z,51.11
2023-08-13T07:10:18.976Z,49.68
2023-08-13T07:13:20.896Z,50.28
2023-08-13T07:16:22.773Z,48.69
2023-08-13T07:19:25.772Z,50.08
2023-08-13T07:22:27.799Z,48.64
2023-08-13T07:25:29.694Z,49.13
2023-08-13T07:28:33.877Z,48.40
2023-08-13T07:31:36.262Z,47.35
2023-08-13T07:34:38.245Z,46.22
2023-08-13T07:37:40.540Z,46.43
2023-08-13T07:40:42.655Z,45.80
2023-08-13T07:43:44.636Z,45.26
2023-08-13T07:46:46.535Z,46.60
2023-08-13T07:49:48.461Z,46.09
2023-08-13T07:52:51.434Z,45.17
2023-08-13T07:55:53.329Z,45.18
2023-08-13T07:58:55.235Z,45.37
2023-08-13T08:01:57.198Z,45.60
2023-08-13T08:04:59.083Z,45.74
2023-08-13T08:08:02.086Z,44.95
2023-08-13T08:11:03.984Z,44.05
2023-08-13T08:14:05.855Z,43.67
2023-08-13T08:17:08.797Z,42.84
2023-08-13T08:20:12.793Z,43.24
2023-08-13T08:23:15.299Z,43.08
2023-08-13T08:26:17.219Z,42.96
2023-08-13T08:29:19.370Z,41.96
2023-08-13T08:32:21.237Z,41.70
2023-08-13T08:35:23.109Z,41.57
2023-08-13T08:38:25.101Z,42.31
2023-08-13T08:41:29.236Z,42.62
2023-08-13T08:44:33.714Z,42.42
2023-08-13T08:47:36.433Z,42.75
2023-08-13T08:50:39.112Z,43.60
2023-08-13T08:53:41.208Z,43.95
2023-08-13T08:56:43.205Z,43.52
2023-08-13T08:59:46.072Z,43.03
2023-08-13T09:02:48.291Z,42.75
2023-08-13T09:05:50.485Z,39.96
2023-08-13T09:08:53.340Z,40.74
2023-08-13T09:11:56.582Z,39.36
2023-08-13T09:15:04.403Z,41.25
2023-08-13T09:18:06.770Z,41.95
2023-08-13T09:21:10.290Z,42.55
2023-08-13T09:24:12.216Z,40.66
2023-08-13T09:27:14.198Z,41.86
2023-08-13T09:30:29.755Z,41.63
2023-08-13T09:33:33.821Z,42.21
2023-08-13T09:36:36.196Z,40.83
2023-08-13T09:39:38.498Z,40.86
2023-08-13T09:42:40.398Z,40.28
2023-08-13T09:45:44.622Z,37.76
2023-08-13T09:48:47.683Z,38.30
2023-08-13T09:51:50.606Z,38.50
2023-08-13T09:55:11.084Z,36.40
2023-08-13T09:58:15.638Z,38.10
2023-08-13T10:01:18.506Z,37.33
2023-08-13T10:04:22.487Z,36.07
2023-08-13T10:07:25.559Z,37.80
2023-08-13T10:10:30.315Z,37.98
2023-08-13T10:13:32.300Z,37.43
2023-08-13T10:16:34.502Z,36.48
2023-08-13T10:19:40.350Z,35.48
2023-08-13T10:22:42.289Z,36.43
2023-08-13T10:25:46.131Z,36.99
2023-08-13T10:28:54.342Z,37.81
2023-08-13T10:32:00.285Z,37.86
2023-08-13T10:35:40.823Z,35.31
2023-08-13T10:38:42.703Z,35.94
2023-08-13T10:41:44.551Z,36.13
2023-08-13T10:44:48.758Z,35.30
2023-08-13T10:47:59.772Z,35.82
2023-08-13T10:51:02.070Z,35.90
2023-08-13T10:54:04.319Z,35.36
2023-08-13T10:57:07.320Z,35.07
2023-08-13T11:00:14.708Z,34.96
2023-08-13T11:03:23.516Z,34.44
2023-08-13T11:06:29.366Z,34.03
2023-08-13T11:09:31.628Z,34.25
2023-08-13T11:12:33.850Z,34.43
2023-08-13T11:15:36.065Z,35.15
2023-08-13T11:18:38.102Z,34.61
2023-08-13T11:21:40.150Z,35.69
2023-08-13T11:24:46.012Z,33.11
2023-08-13T11:27:47.936Z,35.41
2023-08-13T11:30:52.799Z,35.88
2023-08-13T11:33:54.698Z,33.70
2023-08-13T11:36:57.900Z,34.72
2023-08-13T11:39:59.895Z,34.45
2023-08-13T11:43:03.005Z,34.23
2023-08-13T11:46:05.441Z,34.33
2023-08-13T11:49:16.564Z,34.54
2023-08-13T11:52:22.645Z,35.02
2023-08-13T11:55:25.310Z,35.47
2023-08-13T11:58:27.246Z,35.92
2023-08-13T12:01:29.169Z,35.61
2023-08-13T12:04:37.343Z,35.22
2023-08-13T12:07:43.030Z,34.48
2023-08-13T12:10:44.932Z,34.69
2023-08-13T12:13:47.357Z,34.52
2023-08-13T12:16:49.587Z,34.82
2023-08-13T12:19:51.534Z,35.08
2023-08-13T12:22:53.650Z,35.79
2023-08-13T12:25:55.580Z,34.99
2023-08-13T12:28:57.727Z,34.16
2023-08-13T12:32:00.563Z,34.19
2023-08-13T12:35:04.422Z,33.56
2023-08-13T12:38:06.286Z,35.51
2023-08-13T12:41:08.799Z,34.61
2023-08-13T12:44:11.249Z,34.21
2023-08-13T12:47:14.569Z,34.90
2023-08-13T12:50:16.482Z,34.81
2023-08-13T12:53:18.485Z,34.65
2023-08-13T12:56:20.346Z,34.72
2023-08-13T12:59:22.344Z,36.33
2023-08-13T13:02:27.923Z,36.12
2023-08-13T13:05:31.162Z,35.85
2023-08-13T13:08:33.140Z,34.61
2023-08-13T13:11:35.807Z,34.57
2023-08-13T13:14:37.719Z,35.84
2023-08-13T13:17:39.710Z,35.48
2023-08-13T13:20:41.671Z,34.57
2023-08-13T13:23:43.583Z,35.71
2023-08-13T13:26:45.472Z,35.51
2023-08-13T13:29:47.408Z,36.14
2023-08-13T13:32:49.384Z,34.89
2023-08-13T13:35:51.357Z,35.15
2023-08-13T13:38:53.258Z,35.18
2023-08-13T13:41:55.121Z,34.58
2023-08-13T13:44:57.106Z,33.88
2023-08-13T13:47:59.071Z,36.40
2023-08-13T13:51:01.008Z,35.02
2023-08-13T13:54:04.029Z,34.75
2023-08-13T13:57:06.090Z,35.04
2023-08-13T14:00:08.698Z,35.11
2023-08-13T14:03:10.846Z,35.58
2023-08-13T14:06:12.842Z,34.92
2023-08-13T14:09:17.106Z,33.76
2023-08-13T14:12:19.240Z,34.76
2023-08-13T14:15:21.255Z,34.21
2023-08-13T14:18:23.232Z,34.88
2023-08-13T14:21:25.159Z,34.53
2023-08-13T14:24:27.087Z,35.15
2023-08-13T14:27:29.548Z,35.32
2023-08-13T14:30:31.490Z,35.35
2023-08-13T14:33:33.382Z,35.66
2023-08-13T14:36:35.761Z,35.44
2023-08-13T14:39:37.737Z,35.96
2023-08-13T14:42:39.842Z,35.12
2023-08-13T14:45:41.787Z,35.22
2023-08-13T14:48:43.777Z,35.17
2023-08-13T14:51:46.206Z,35.73
2023-08-13T14:54:48.244Z,35.47
2023-08-13T14:57:50.126Z,34.79
2023-08-13T15:00:52.142Z,34.81
2023-08-13T15:03:54.296Z,34.81
2023-08-13T15:06:56.222Z,33.97
2023-08-13T15:09:58.190Z,34.48
2023-08-13T15:13:00.046Z,35.38
2023-08-13T15:16:02.623Z,35.66
2023-08-13T15:19:04.959Z,36.04
2023-08-13T15:22:06.913Z,36.94
2023-08-13T15:25:09.086Z,37.22
2023-08-13T15:28:11.013Z,38.00
2023-08-13T15:31:12.918Z,38.15
2023-08-13T15:34:16.003Z,37.98
2023-08-13T15:37:17.930Z,38.73
2023-08-13T15:40:20.103Z,38.88
2023-08-13T15:43:23.232Z,38.67
2023-08-13T15:46:25.221Z,39.43
2023-08-13T15:49:27.311Z,40.11
2023-08-13T15:52:29.382Z,40.04
2023-08-13T15:55:31.631Z,40.67
2023-08-13T15:58:36.576Z,41.45
2023-08-13T16:01:40.129Z,41.67
2023-08-13T16:04:42.022Z,42.21
2023-08-13T16:07:47.006Z,42.92
2023-08-13T16:10:59.788Z,43.35
2023-08-13T16:14:01.752Z,43.85
2023-08-13T16:17:03.722Z,44.21
2023-08-13T16:20:06.543Z,45.31
2023-08-13T16:23:08.559Z,46.51
2023-08-13T16:26:10.385Z,47.47
2023-08-13T16:29:12.250Z,50.33
2023-08-13T16:32:24.409Z,49.81
2023-08-13T16:35:31.572Z,51.29
2023-08-13T16:38:33.574Z,54.33
2023-08-13T16:41:35.455Z,52.96
2023-08-13T16:44:37.273Z,55.40
2023-08-13T16:47:39.171Z,54.03
2023-08-13T16:50:41.442Z,56.20
2023-08-13T16:53:43.395Z,56.17
2023-08-13T16:56:45.342Z,55.43
2023-08-13T16:59:47.079Z,56.59
2023-08-13T17:02:49.136Z,55.76
2023-08-13T17:05:53.830Z,56.68
2023-08-13T17:08:56.085Z,57.23
2023-08-13T17:11:57.812Z,58.75
2023-08-13T17:15:12.003Z,57.99
2023-08-13T17:18:21.717Z,58.71
2023-08-13T17:21:23.534Z,60.76
2023-08-13T17:24:25.421Z,59.13
2023-08-13T17:27:27.385Z,59.62
2023-08-13T17:30:29.363Z,60.22
2023-08-13T17:33:31.228Z,62.80
2023-08-13T17:36:33.199Z,61.09
2023-08-13T17:39:35.152Z,60.95
2023-08-13T17:42:37.168Z,60.99
2023-08-13T17:45:41.203Z,63.62
2023-08-13T17:48:43.102Z,62.01
2023-08-13T17:51:45.121Z,62.68
2023-08-13T17:54:46.983Z,63.24
2023-08-13T17:57:48.972Z,63.63
2023-08-13T18:00:51.048Z,64.03
2023-08-13T18:03:52.911Z,65.39
2023-08-13T18:06:54.826Z,64.00
2023-08-13T18:09:56.741Z,64.22
2023-08-13T18:12:58.943Z,64.55
2023-08-13T18:16:02.321Z,66.89
2023-08-13T18:19:04.506Z,65.37
2023-08-13T18:22:06.217Z,66.74
2023-08-13T18:25:10.572Z,65.62
2023-08-13T18:28:12.771Z,66.33
2023-08-13T18:31:14.560Z,67.64
2023-08-13T18:34:16.528Z,66.71
2023-08-13T18:37:18.720Z,66.56
2023-08-13T18:40:20.826Z,66.92
2023-08-13T18:43:22.738Z,67.20
2023-08-13T18:46:24.695Z,67.65
2023-08-13T18:49:26.701Z,68.12
2023-08-13T18:52:28.673Z,67.86
2023-08-13T18:55:30.668Z,68.16
2023-08-13T18:58:32.792Z,68.12
2023-08-13T19:01:34.777Z,68.63
2023-08-13T19:04:36.741Z,68.12
2023-08-13T19:07:38.730Z,67.97
2023-08-13T19:10:46.617Z,69.01
2023-08-13T19:13:48.533Z,69.28
2023-08-13T19:16:50.417Z,68.95
2023-08-13T19:19:52.431Z,68.86
2023-08-13T19:22:54.402Z,68.67
2023-08-13T19:25:56.432Z,68.87
2023-08-13T19:28:58.938Z,69.05
2023-08-13T19:32:00.931Z,69.78
2023-08-13T19:35:02.981Z,70.00
2023-08-13T19:38:05.325Z,70.27
2023-08-13T19:41:07.291Z,71.96
2023-08-13T19:44:12.283Z,71.31
2023-08-13T19:47:18.302Z,71.32
2023-08-13T19:50:20.281Z,72.17
2023-08-13T19:53:22.245Z,72.42
2023-08-13T19:56:24.200Z,72.52
2023-08-13T19:59:26.141Z,72.73
2023-08-13T20:02:28.651Z,73.17
2023-08-13T20:05:30.728Z,73.57
2023-08-13T20:08:32.669Z,74.00
2023-08-13T20:11:34.565Z,74.08
2023-08-13T20:14:36.478Z,74.16
2023-08-13T20:17:39.318Z,74.25
2023-08-13T20:20:41.357Z,74.40
2023-08-13T20:23:43.319Z,75.01
2023-08-13T20:26:46.025Z,74.89
2023-08-13T20:29:47.995Z,75.46
2023-08-13T20:32:50.512Z,75.32
2023-08-13T20:35:52.478Z,75.73
2023-08-13T20:38:54.411Z,75.59
2023-08-13T20:41:56.340Z,75.77
2023-08-13T20:44:58.186Z,75.95
2023-08-13T20:48:00.159Z,75.95
2023-08-13T20:51:02.341Z,75.92
2023-08-13T20:54:04.374Z,75.66
2023-08-13T20:57:06.439Z,75.91
2023-08-13T21:00:08.891Z,75.89
2023-08-13T21:03:11.842Z,77.25
2023-08-13T21:06:13.813Z,76.38
2023-08-13T21:09:15.768Z,76.66
2023-08-13T21:12:17.978Z,76.73
2023-08-13T21:15:19.903Z,77.88
2023-08-13T21:18:21.837Z,76.85
2023-08-13T21:21:23.763Z,77.02
2023-08-13T21:24:25.631Z,77.30
2023-08-13T21:27:27.495Z,78.20
2023-08-13T21:30:29.392Z,78.60
2023-08-13T21:33:31.251Z,78.49
2023-08-13T21:36:33.281Z,78.71
2023-08-13T21:39:35.128Z,79.39
2023-08-13T21:42:36.959Z,78.67
2023-08-13T21:45:38.798Z,79.22
2023-08-13T21:48:40.679Z,79.52
2023-08-13T21:51:44.663Z,78.84
2023-08-13T21:54:46.586Z,79.17
2023-08-13T21:57:48.525Z,79.73
2023-08-13T22:00:50.698Z,79.76
2023-08-13T22:03:53.458Z,79.74
2023-08-13T22:06:56.824Z,79.59
2023-08-13T22:09:59.774Z,79.87
2023-08-13T22:13:01.825Z,79.79
2023-08-13T22:16:04.966Z,80.16
2023-08-13T22:19:07.806Z,79.98
2023-08-13T22:22:09.680Z,80.29
2023-08-13T22:25:13.168Z,80.37
2023-08-13T22:28:15.145Z,80.22
2023-08-13T22:31:17.211Z,80.47
2023-08-13T22:34:19.105Z,80.90
2023-08-13T22:37:21.036Z,81.17
2023-08-13T22:40:22.917Z,81.33
2023-08-13T22:43:24.810Z,81.02
2023-08-13T22:46:28.401Z,80.80
2023-08-13T22:49:35.288Z,80.81
2023-08-13T22:52:37.128Z,80.86
2023-08-13T22:55:39.120Z,81.45
2023-08-13T22:58:41.006Z,81.25
2023-08-13T23:01:45.507Z,81.06
2023-08-13T23:04:47.625Z,80.89
2023-08-13T23:07:49.488Z,81.44
2023-08-13T23:10:51.423Z,81.17
2023-08-13T23:13:53.640Z,81.30
2023-08-13T23:16:55.776Z,81.08
2023-08-13T23:19:58.073Z,81.51
2023-08-13T23:23:00.000Z,81.51
2023-08-13T23:26:01.933Z,81.99
2023-08-13T23:29:03.940Z,81.89
2023-08-13T23:32:06.040Z,81.71
2023-08-13T23:35:08.482Z,81.63
2023-08-13T23:38:10.316Z,82.54
2023-08-13T23:41:12.261Z,81.64
2023-08-13T23:44:14.193Z,81.75
2023-08-13T23:47:16.044Z,81.78
2023-08-13T23:50:18.065Z,81.92
2023-08-13T23:53:19.946Z,82.05
2023-08-13T23:56:21.838Z,82.47
2023-08-13T23:59:23.707Z,82.96
